createdAt,value
2023-05-13T09:09:48.403Z,101794.69
2023-05-13T09:12:46.952Z,101796.41
2023-05-13T09:15:16.519Z,101796.28
2023-05-13T09:17:45.622Z,101793.84
2023-05-13T09:20:14.209Z,101795.69
2023-05-13T09:22:57.446Z,101789.97
2023-05-13T09:25:24.991Z,101791.31
2023-05-13T09:27:59.038Z,101782.59
2023-05-13T09:30:27.317Z,101772.44
2023-05-13T09:33:15.891Z,101781.88
2023-05-13T09:35:53.190Z,101781.09
2023-05-13T09:38:22.692Z,101783.59
2023-05-13T09:41:00.256Z,101790.75
2023-05-13T09:43:29.168Z,101780.22
2023-05-13T09:45:57.919Z,101785.97
2023-05-13T09:48:26.339Z,101778.19
2023-05-13T09:50:53.922Z,101782.22
2023-05-13T09:53:23.590Z,101767.81
2023-05-13T09:55:56.020Z,101771.69
2023-05-13T09:58:24.657Z,101778.06
2023-05-13T10:00:52.044Z,101784.25
2023-05-13T10:03:19.105Z,101762.66
2023-05-13T10:05:50.119Z,101770.66
2023-05-13T10:08:17.894Z,101777.66
2023-05-13T10:10:46.462Z,101788.00
2023-05-13T10:13:19.105Z,101764.78
2023-05-13T10:15:51.291Z,101766.75
2023-05-13T10:18:19.569Z,101766.66
2023-05-13T10:20:47.495Z,101752.97
2023-05-13T10:23:14.404Z,101746.41
2023-05-13T10:25:42.216Z,101755.91
2023-05-13T10:28:10.801Z,101762.09
2023-05-13T10:30:38.332Z,101746.78
2023-05-13T10:33:05.265Z,101748.19
2023-05-13T10:35:37.532Z,101738.03
2023-05-13T10:38:09.880Z,101751.34
2023-05-13T10:41:10.611Z,101750.69
2023-05-13T10:43:37.680Z,101746.78
2023-05-13T10:46:06.491Z,101753.72
2023-05-13T10:48:47.705Z,101752.59
2023-05-13T10:51:15.953Z,101743.78
2023-05-13T10:53:50.843Z,101740.31
2023-05-13T10:56:26.111Z,101740.94
2023-05-13T10:59:03.411Z,101739.41
2023-05-13T11:01:34.878Z,101750.94
2023-05-13T11:04:03.453Z,101733.41
2023-05-13T11:06:37.933Z,101731.75
2023-05-13T11:09:08.480Z,101743.38
2023-05-13T11:11:38.699Z,101726.78
2023-05-13T11:14:16.065Z,101733.38
2023-05-13T11:17:01.361Z,101736.00
2023-05-13T11:19:30.142Z,101729.66
2023-05-13T11:21:59.009Z,101733.59
2023-05-13T11:24:26.845Z,101749.63
2023-05-13T11:26:59.247Z,101730.09
2023-05-13T11:29:36.630Z,101724.47
2023-05-13T11:32:05.696Z,101712.50
2023-05-13T11:34:34.079Z,101729.63
2023-05-13T11:37:04.013Z,101732.16
2023-05-13T11:39:31.962Z,101733.84
2023-05-13T11:42:01.958Z,101709.03
2023-05-13T11:44:29.018Z,101711.63
2023-05-13T11:47:00.173Z,101723.72
2023-05-13T11:49:44.318Z,101719.00
2023-05-13T11:52:18.334Z,101723.31
2023-05-13T11:54:47.727Z,101713.66
2023-05-13T11:57:18.003Z,101707.13
2023-05-13T11:59:57.749Z,101730.25
2023-05-13T12:02:33.898Z,101712.91
2023-05-13T12:05:08.642Z,101711.41
2023-05-13T12:07:36.309Z,101707.81
2023-05-13T12:10:04.607Z,101701.09
2023-05-13T12:12:34.940Z,101680.84
2023-05-13T12:15:07.459Z,101704.75
2023-05-13T12:17:34.439Z,101705.28
2023-05-13T12:20:08.111Z,101705.16
2023-05-13T12:22:36.048Z,101722.22
2023-05-13T12:25:41.423Z,101713.28
2023-05-13T12:28:24.234Z,101718.19
2023-05-13T12:30:59.000Z,101706.56
2023-05-13T12:33:27.570Z,101706.34
2023-05-13T12:35:55.961Z,101702.25
2023-05-13T12:38:24.867Z,101713.19
2023-05-13T12:40:53.366Z,101712.38
2023-05-13T12:43:20.623Z,101707.09
2023-05-13T12:45:48.602Z,101702.13
2023-05-13T12:48:15.408Z,101710.69
2023-05-13T12:50:42.247Z,101711.06
2023-05-13T12:53:09.084Z,101705.97
2023-05-13T12:55:40.319Z,101711.66
2023-05-13T12:58:11.447Z,101702.25
2023-05-13T13:00:38.462Z,101705.09
2023-05-13T13:03:06.128Z,101700.91
2023-05-13T13:05:33.429Z,101703.22
2023-05-13T13:08:01.770Z,101697.38
2023-05-13T13:10:29.063Z,101698.63
2023-05-13T13:12:55.939Z,101703.84
2023-05-13T13:15:23.442Z,101688.00
2023-05-13T13:17:50.598Z,101699.16
2023-05-13T13:20:17.518Z,101705.44
2023-05-13T13:22:44.271Z,101709.94
2023-05-13T13:25:11.259Z,101704.25
2023-05-13T13:27:38.015Z,101705.75
2023-05-13T13:30:05.231Z,101703.34
2023-05-13T13:32:35.551Z,101704.59
